Decoded Metar for KCLT (CHARLOTTE in NC, USA) (IATA:CLT) | Meteo·Mobile Aviation Weather
aviador You're here:

KCLT Decoded Metar

CHARLOTTE in NC, USA
Report Time2018-11-15 12:17:00
UTC Time2018-11-15 12:38:12
Flight Rules ifr IFR
Wind330° at 07 kt
W.Decomp.*RWY 36: 6.4 kt HW 2.7 kt LCW
RWY 05: 2.0 kt HW 6.7 kt LCW
W.Rank330° ranks 20
Current wind is above 330° avg. (5.7)
Visibility3219 m
Phenomena:Heavy Rain
Clouds:Broken 009 Hf
Overcast 016 Hf
Ceiling900 ft
Temp02°C (ISA -12)
Dew Point02°C (100% RH)
AAT-2.2°C
QNH1020 hPa
Density Alt-823 ft
Elevation722 ft
Report Wrong Elevation
Raw Report
KCLT 151217Z 33007KT 2SM +RA BR BKN009 OVC016 02/02 A3013 RMK AO2
P0015 T00220022=

Extra information for KCLT:More info

Metar Taf Metar & Taf Last 4 Metars F.Rules Stats Wind Profile Meteogram Temp Stats Airport Information Weather charts Add Link Nearby VenuesMetar ALERT Operation Metar Decoded Social comments

AIRNAV info for KCLT